METAR Data
IDs: Format: Raw Decoded Include TAF

Data at: 0058 UTC 20 Jan 2022

EHBK 200055Z AUTO 26005KT 230V290 9999 NSC 03/02 Q1025